createdAt,value
2023-08-23T00:00:42.194Z,101497.16
2023-08-23T00:05:44.213Z,101492.94
2023-08-23T00:10:45.732Z,101484.47
2023-08-23T00:15:47.241Z,101473.09
2023-08-23T00:20:48.764Z,101461.13
2023-08-23T00:25:50.266Z,101477.31
2023-08-23T00:30:55.378Z,101486.78
2023-08-23T00:35:57.064Z,101492.00
2023-08-23T00:40:58.575Z,101489.25
2023-08-23T00:46:00.246Z,101488.09
2023-08-23T00:51:01.836Z,101475.72
2023-08-23T00:56:03.419Z,101471.19
2023-08-23T01:01:04.960Z,101468.88
2023-08-23T01:06:47.361Z,101489.03
2023-08-23T01:12:12.544Z,101493.03
2023-08-23T01:17:14.709Z,101482.19
2023-08-23T01:22:24.504Z,101471.28
2023-08-23T01:27:27.523Z,101469.59
2023-08-23T01:32:49.878Z,101470.22
2023-08-23T01:37:52.149Z,101479.53
2023-08-23T01:42:53.645Z,101476.78
2023-08-23T01:47:55.332Z,101486.06
2023-08-23T01:52:56.990Z,101484.06
2023-08-23T01:57:59.067Z,101477.09
2023-08-23T02:03:00.697Z,101483.69
2023-08-23T02:08:02.300Z,101480.78
2023-08-23T02:13:06.334Z,101486.28
2023-08-23T02:18:07.891Z,101488.72
2023-08-23T02:23:09.434Z,101482.47
2023-08-23T02:28:10.985Z,101490.28
2023-08-23T02:33:12.502Z,101480.78
2023-08-23T02:38:14.383Z,101488.09
2023-08-23T02:43:15.900Z,101473.63
2023-08-23T02:48:17.487Z,101487.66
2023-08-23T02:53:19.030Z,101475.72
2023-08-23T02:58:20.613Z,101467.59
2023-08-23T03:03:22.230Z,101459.28
2023-08-23T03:08:24.365Z,101465.28
2023-08-23T03:13:25.896Z,101455.91
2023-08-23T03:18:27.570Z,101461.59
2023-08-23T03:23:29.119Z,101451.34
2023-08-23T03:28:30.711Z,101461.56
2023-08-23T03:33:32.293Z,101446.91
2023-08-23T03:38:33.792Z,101458.59
2023-08-23T03:43:35.745Z,101450.09
2023-08-23T03:48:37.133Z,101451.03
2023-08-23T03:53:38.507Z,101451.66
2023-08-23T03:58:40.017Z,101449.97
2023-08-23T04:03:41.627Z,101439.84
2023-08-23T04:08:43.269Z,101442.66
2023-08-23T04:13:44.787Z,101441.84
2023-08-23T04:18:46.290Z,101438.97
2023-08-23T04:23:47.830Z,101446.03
2023-08-23T04:28:49.361Z,101450.69
2023-08-23T04:33:50.876Z,101438.25
2023-08-23T04:38:52.375Z,101441.78
2023-08-23T04:43:53.874Z,101444.78
2023-08-23T04:48:55.367Z,101425.50
2023-08-23T04:53:56.867Z,101434.72
2023-08-23T04:58:58.386Z,101440.50
2023-08-23T05:04:00.101Z,101434.63
2023-08-23T05:09:01.644Z,101435.97
2023-08-23T05:14:03.442Z,101441.25
2023-08-23T05:19:04.977Z,101435.97
2023-08-23T05:24:06.583Z,101429.84
2023-08-23T05:29:08.120Z,101436.34
2023-08-23T05:34:09.698Z,101433.16
2023-08-23T05:39:11.300Z,101427.06
2023-08-23T05:44:12.869Z,101436.81
2023-08-23T05:49:14.451Z,101428.28
2023-08-23T05:54:15.967Z,101441.47
2023-08-23T05:59:17.465Z,101435.00
2023-08-23T06:04:19.215Z,101434.53
2023-08-23T06:09:20.743Z,101438.72
2023-08-23T06:14:22.983Z,101437.97
2023-08-23T06:19:24.505Z,101443.44
2023-08-23T06:24:26.003Z,101435.75
2023-08-23T06:29:27.528Z,101446.44
2023-08-23T06:34:29.038Z,101431.78
2023-08-23T06:39:34.430Z,101442.28
2023-08-23T06:44:36.475Z,101438.59
2023-08-23T06:49:38.019Z,101437.00
2023-08-23T06:54:39.510Z,101446.75
2023-08-23T06:59:41.066Z,101455.09
2023-08-23T07:04:42.559Z,101445.56
2023-08-23T07:09:44.055Z,101450.28
2023-08-23T07:14:47.878Z,101445.56
2023-08-23T07:19:51.403Z,101451.25
2023-08-23T07:24:52.916Z,101445.00
2023-08-23T07:29:54.532Z,101463.13
2023-08-23T07:34:56.040Z,101455.31
2023-08-23T07:39:57.653Z,101455.09
2023-08-23T07:44:59.305Z,101468.34
2023-08-23T07:50:02.367Z,101468.34
2023-08-23T07:55:06.222Z,101477.59
2023-08-23T08:00:09.420Z,101477.72
2023-08-23T08:05:11.104Z,101476.63
2023-08-23T08:10:12.705Z,101480.56
2023-08-23T08:15:14.292Z,101479.31
2023-08-23T08:20:15.815Z,101491.38
2023-08-23T08:25:17.630Z,101493.78
2023-08-23T08:30:19.323Z,101499.03
2023-08-23T08:35:21.595Z,101500.09
2023-08-23T08:40:23.364Z,101500.81
2023-08-23T08:45:24.982Z,101491.09
2023-08-23T08:50:27.283Z,101486.56
2023-08-23T08:55:29.696Z,101498.28
2023-08-23T09:00:31.677Z,101490.41
2023-08-23T09:05:33.401Z,101495.66
2023-08-23T09:10:34.937Z,101500.59
2023-08-23T09:28:23.134Z,101506.31
2023-08-23T09:33:25.174Z,101503.50
2023-08-23T09:38:26.906Z,101504.25
2023-08-23T09:43:28.274Z,101501.28
2023-08-23T09:48:29.821Z,101494.00
2023-08-23T09:53:32.969Z,101503.78
2023-08-23T09:58:34.477Z,101493.00
2023-08-23T10:03:35.860Z,101499.03
2023-08-23T10:08:37.506Z,101496.81
2023-08-23T10:13:39.075Z,101500.03
2023-08-23T10:18:40.591Z,101507.19
2023-08-23T10:23:42.240Z,101499.16
2023-08-23T10:28:54.192Z,101506.09
2023-08-23T10:33:56.914Z,101501.41
2023-08-23T10:38:58.554Z,101500.28
2023-08-23T10:44:00.840Z,101496.16
2023-08-23T10:49:02.382Z,101498.81
2023-08-23T10:54:03.755Z,101498.81
2023-08-23T10:59:07.659Z,101498.56
2023-08-23T11:04:09.246Z,101484.97
2023-08-23T11:09:10.903Z,101489.09
2023-08-23T11:14:12.406Z,101477.28
2023-08-23T11:19:13.773Z,101474.50
2023-08-23T11:24:15.287Z,101474.22
2023-08-23T11:29:16.672Z,101489.59
2023-08-23T11:34:18.732Z,101492.63
2023-08-23T11:39:20.229Z,101495.69
2023-08-23T11:44:21.751Z,101487.44
2023-08-23T11:49:23.933Z,101495.25
2023-08-23T11:54:25.442Z,101492.22
2023-08-23T11:59:27.208Z,101497.47
2023-08-23T12:04:28.756Z,101498.97
2023-08-23T12:09:30.259Z,101502.69
2023-08-23T12:14:31.781Z,101497.66
2023-08-23T12:19:37.276Z,101502.63
2023-08-23T12:24:39.181Z,101496.88
2023-08-23T12:29:42.379Z,101492.91
2023-08-23T12:34:43.878Z,101489.22
2023-08-23T12:39:45.389Z,101492.66
2023-08-23T12:44:46.898Z,101483.59
2023-08-23T12:49:48.882Z,101486.03
2023-08-23T12:54:50.531Z,101497.22
2023-08-23T12:59:52.067Z,101490.72
2023-08-23T13:04:53.574Z,101489.91
2023-08-23T13:09:55.118Z,101489.66
2023-08-23T13:14:56.792Z,101487.19
2023-08-23T13:19:58.304Z,101488.34
2023-08-23T13:24:59.855Z,101493.16
2023-08-23T13:30:01.369Z,101493.59
2023-08-23T13:35:02.889Z,101498.19
2023-08-23T13:40:07.182Z,101496.88
2023-08-23T13:45:08.963Z,101501.44
2023-08-23T13:50:10.618Z,101492.41
2023-08-23T13:55:12.329Z,101491.75
2023-08-23T14:00:14.112Z,101490.94
2023-08-23T14:05:15.720Z,101491.16
2023-08-23T14:10:17.307Z,101489.06
2023-08-23T14:15:18.868Z,101492.06
2023-08-23T14:20:20.373Z,101493.06
2023-08-23T14:25:21.734Z,101477.56
2023-08-23T14:30:23.286Z,101480.66
2023-08-23T14:35:24.933Z,101485.97
2023-08-23T14:40:26.299Z,101476.56
2023-08-23T14:45:27.802Z,101475.03
2023-08-23T14:50:29.479Z,101471.44
2023-08-23T14:55:31.010Z,101470.84
2023-08-23T15:00:34.167Z,101484.28
2023-08-23T15:05:37.552Z,101480.34
2023-08-23T15:10:39.134Z,101475.66
2023-08-23T15:15:41.706Z,101463.56
2023-08-23T15:20:43.521Z,101468.44
2023-08-23T15:25:45.734Z,101464.66
2023-08-23T15:30:47.260Z,101458.75
2023-08-23T15:35:48.691Z,101464.00
2023-08-23T15:40:50.197Z,101471.03
2023-08-23T15:45:54.340Z,101471.91
2023-08-23T15:50:55.904Z,101466.44
2023-08-23T15:55:58.032Z,101463.50
2023-08-23T16:00:59.538Z,101460.13
2023-08-23T16:06:01.096Z,101463.44
2023-08-23T16:11:02.502Z,101468.03
2023-08-23T16:16:04.129Z,101460.75
2023-08-23T16:21:05.544Z,101456.03
2023-08-23T16:26:09.563Z,101462.56
2023-08-23T16:31:11.148Z,101456.78
2023-08-23T16:36:12.740Z,101455.84
2023-08-23T16:41:14.271Z,101446.59
2023-08-23T16:46:15.787Z,101445.59
2023-08-23T16:51:17.340Z,101446.28
2023-08-23T16:56:18.857Z,101443.78
2023-08-23T17:01:20.403Z,101454.31
2023-08-23T17:06:21.967Z,101453.09
2023-08-23T17:11:23.479Z,101450.56
2023-08-23T17:16:27.926Z,101449.97
2023-08-23T17:21:29.880Z,101451.81
2023-08-23T17:26:31.396Z,101454.63
2023-08-23T17:31:33.330Z,101457.97
2023-08-23T17:36:34.889Z,101455.66
2023-08-23T17:41:36.376Z,101454.06
2023-08-23T17:46:38.970Z,101460.03
2023-08-23T17:51:40.635Z,101451.13
2023-08-23T17:56:43.177Z,101463.97
2023-08-23T18:01:45.543Z,101458.41
2023-08-23T18:06:47.033Z,101457.88
2023-08-23T18:11:48.595Z,101470.13
2023-08-23T18:16:50.143Z,101460.72
2023-08-23T18:21:51.677Z,101470.09
2023-08-23T18:26:53.205Z,101459.56
2023-08-23T18:31:54.734Z,101472.84
2023-08-23T18:36:56.249Z,101467.34
2023-08-23T18:41:57.761Z,101468.03
2023-08-23T18:46:59.300Z,101474.94
2023-08-23T18:52:00.828Z,101484.16
2023-08-23T18:57:03.569Z,101483.00
2023-08-23T19:02:06.304Z,101483.13
2023-08-23T19:07:08.158Z,101491.41
2023-08-23T19:12:11.533Z,101493.72
2023-08-23T19:17:13.133Z,101505.59
2023-08-23T19:22:14.828Z,101502.63
2023-08-23T19:27:16.332Z,101502.28
2023-08-23T19:32:17.843Z,101510.44
2023-08-23T19:37:19.353Z,101502.41
2023-08-23T19:42:21.592Z,101513.38
2023-08-23T19:47:23.120Z,101511.34
2023-08-23T19:52:24.875Z,101510.00
2023-08-23T19:57:30.425Z,101514.22
2023-08-23T20:02:32.069Z,101514.94
2023-08-23T20:07:34.927Z,101521.94
2023-08-23T20:12:37.258Z,101517.31
2023-08-23T20:17:38.964Z,101509.19
2023-08-23T20:22:40.475Z,101512.50
2023-08-23T20:27:42.016Z,101507.81
2023-08-23T20:32:43.670Z,101506.97
2023-08-23T20:37:46.019Z,101516.34
2023-08-23T20:42:47.637Z,101516.28
2023-08-23T20:47:49.382Z,101514.25
2023-08-23T20:52:52.595Z,101515.97
2023-08-23T20:57:54.318Z,101517.50
2023-08-23T21:02:55.850Z,101520.81
2023-08-23T21:07:57.445Z,101515.97
2023-08-23T21:12:58.967Z,101507.50
2023-08-23T21:18:00.533Z,101499.91
2023-08-23T21:23:02.126Z,101494.53
2023-08-23T21:28:03.839Z,101500.66
2023-08-23T21:33:05.608Z,101491.28
2023-08-23T21:38:07.337Z,101501.91
2023-08-23T21:43:09.757Z,101484.28
2023-08-23T21:48:11.331Z,101485.69
2023-08-23T21:53:12.885Z,101479.66
2023-08-23T21:58:14.416Z,101484.16
2023-08-23T22:03:15.980Z,101484.38
2023-08-23T22:08:18.164Z,101478.91
2023-08-23T22:13:19.689Z,101483.03
2023-08-23T22:18:21.189Z,101493.66
2023-08-23T22:23:22.951Z,101485.47
2023-08-23T22:28:25.128Z,101487.56
2023-08-23T22:33:27.428Z,101487.13
2023-08-23T22:38:29.534Z,101487.38
2023-08-23T22:43:31.051Z,101484.16
2023-08-23T22:48:33.187Z,101489.66
2023-08-23T22:53:35.194Z,101487.56
2023-08-23T22:58:36.698Z,101492.84
2023-08-23T23:03:38.302Z,101501.59
2023-08-23T23:08:40.038Z,101492.88
2023-08-23T23:13:41.612Z,101497.78
2023-08-23T23:18:43.167Z,101489.88
2023-08-23T23:23:44.670Z,101490.00
2023-08-23T23:28:46.207Z,101485.47
2023-08-23T23:33:48.218Z,101490.91
2023-08-23T23:38:49.888Z,101477.63
2023-08-23T23:43:51.397Z,101472.47
2023-08-23T23:48:52.930Z,101475.13
2023-08-23T23:53:54.453Z,101455.44
2023-08-23T23:58:55.969Z,101451.34
